sensor_id;sensor_type;location;lat;lon;timestamp;P1;P2;P0
67714;PMS7003;54505;44.022;20.458;2022-12-18T00:00:29;61.00;46.50;28.75
67714;PMS7003;54505;44.022;20.458;2022-12-18T00:03:14;63.00;48.75;32.25
67714;PMS7003;54505;44.022;20.458;2022-12-18T00:05:47;68.75;53.75;32.50
67714;PMS7003;54505;44.022;20.458;2022-12-18T00:08:13;40.75;36.00;27.25
67714;PMS7003;54505;44.022;20.458;2022-12-18T00:10:39;64.00;49.50;31.50
67714;PMS7003;54505;44.022;20.458;2022-12-18T00:13:04;68.50;48.50;31.25
67714;PMS7003;54505;44.022;20.458;2022-12-18T00:15:32;67.50;50.75;31.75
67714;PMS7003;54505;44.022;20.458;2022-12-18T00:17:58;65.50;44.50;30.00
67714;PMS7003;54505;44.022;20.458;2022-12-18T00:20:24;51.00;44.25;28.00
67714;PMS7003;54505;44.022;20.458;2022-12-18T00:22:53;56.75;46.25;28.00
67714;PMS7003;54505;44.022;20.458;2022-12-18T00:25:18;49.50;37.75;24.25
67714;PMS7003;54505;44.022;20.458;2022-12-18T00:27:44;62.75;47.25;30.50
67714;PMS7003;54505;44.022;20.458;2022-12-18T00:30:10;46.75;41.25;26.75
67714;PMS7003;54505;44.022;20.458;2022-12-18T00:32:36;55.00;43.25;28.25
67714;PMS7003;54505;44.022;20.458;2022-12-18T00:35:03;59.50;38.75;26.25
67714;PMS7003;54505;44.022;20.458;2022-12-18T00:37:28;58.75;48.50;30.00
67714;PMS7003;54505;44.022;20.458;2022-12-18T00:39:54;64.25;50.00;31.00
67714;PMS7003;54505;44.022;20.458;2022-12-18T00:42:19;58.50;45.75;28.25
67714;PMS7003;54505;44.022;20.458;2022-12-18T00:45:04;40.75;37.75;27.50
67714;PMS7003;54505;44.022;20.458;2022-12-18T00:47:30;62.25;47.75;30.50
67714;PMS7003;54505;44.022;20.458;2022-12-18T00:49:55;67.25;46.75;28.00
67714;PMS7003;54505;44.022;20.458;2022-12-18T00:52:21;67.00;51.75;31.00
67714;PMS7003;54505;44.022;20.458;2022-12-18T00:54:48;75.00;54.00;32.25
67714;PMS7003;54505;44.022;20.458;2022-12-18T00:57:14;71.50;50.75;31.50
67714;PMS7003;54505;44.022;20.458;2022-12-18T00:59:42;51.50;42.00;24.25
67714;PMS7003;54505;44.022;20.458;2022-12-18T01:02:08;51.25;45.50;28.25
67714;PMS7003;54505;44.022;20.458;2022-12-18T01:04:33;66.00;46.25;28.00
67714;PMS7003;54505;44.022;20.458;2022-12-18T01:06:59;58.25;45.25;27.75
67714;PMS7003;54505;44.022;20.458;2022-12-18T01:09:25;45.25;42.25;28.00
67714;PMS7003;54505;44.022;20.458;2022-12-18T01:11:51;54.75;44.75;28.00
67714;PMS7003;54505;44.022;20.458;2022-12-18T01:14:17;53.50;43.75;26.75
67714;PMS7003;54505;44.022;20.458;2022-12-18T01:16:42;50.75;38.50;23.00
67714;PMS7003;54505;44.022;20.458;2022-12-18T01:19:08;54.50;43.00;27.50
67714;PMS7003;54505;44.022;20.458;2022-12-18T01:21:34;47.25;38.25;17.00
67714;PMS7003;54505;44.022;20.458;2022-12-18T01:23:59;36.25;30.50;20.75
67714;PMS7003;54505;44.022;20.458;2022-12-18T01:26:25;39.00;28.00;14.75
67714;PMS7003;54505;44.022;20.458;2022-12-18T01:28:54;54.50;38.00;23.50
67714;PMS7003;54505;44.022;20.458;2022-12-18T01:31:20;50.50;41.75;28.00
67714;PMS7003;54505;44.022;20.458;2022-12-18T01:33:47;42.00;33.00;19.25
67714;PMS7003;54505;44.022;20.458;2022-12-18T01:36:16;58.25;40.50;25.75
67714;PMS7003;54505;44.022;20.458;2022-12-18T01:38:44;33.00;21.00;11.25
67714;PMS7003;54505;44.022;20.458;2022-12-18T01:41:09;44.75;37.75;23.75
67714;PMS7003;54505;44.022;20.458;2022-12-18T01:43:43;43.00;36.75;23.50
67714;PMS7003;54505;44.022;20.458;2022-12-18T01:46:08;54.50;42.50;24.50
67714;PMS7003;54505;44.022;20.458;2022-12-18T01:48:34;48.75;40.00;24.50
67714;PMS7003;54505;44.022;20.458;2022-12-18T01:51:00;55.00;44.50;27.75
67714;PMS7003;54505;44.022;20.458;2022-12-18T01:53:26;39.50;27.00;19.75
67714;PMS7003;54505;44.022;20.458;2022-12-18T01:55:55;46.75;41.50;22.25
67714;PMS7003;54505;44.022;20.458;2022-12-18T02:00:57;63.75;45.50;28.25
67714;PMS7003;54505;44.022;20.458;2022-12-18T02:03:23;50.75;42.75;25.00
67714;PMS7003;54505;44.022;20.458;2022-12-18T02:13:38;52.00;39.00;21.00
67714;PMS7003;54505;44.022;20.458;2022-12-18T02:18:53;41.75;37.00;24.75
67714;PMS7003;54505;44.022;20.458;2022-12-18T02:23:56;53.75;38.75;22.75
67714;PMS7003;54505;44.022;20.458;2022-12-18T02:26:30;42.00;35.50;22.25
67714;PMS7003;54505;44.022;20.458;2022-12-18T02:29:01;53.25;37.50;25.50
67714;PMS7003;54505;44.022;20.458;2022-12-18T02:31:30;34.75;32.25;20.50
67714;PMS7003;54505;44.022;20.458;2022-12-18T02:33:58;45.75;38.50;21.75
67714;PMS7003;54505;44.022;20.458;2022-12-18T02:36:25;49.00;41.00;25.25
67714;PMS7003;54505;44.022;20.458;2022-12-18T02:38:53;51.50;44.25;27.25
67714;PMS7003;54505;44.022;20.458;2022-12-18T02:41:19;41.00;35.25;21.00
67714;PMS7003;54505;44.022;20.458;2022-12-18T02:43:52;58.00;43.50;26.50
67714;PMS7003;54505;44.022;20.458;2022-12-18T02:46:26;49.00;38.75;23.00
67714;PMS7003;54505;44.022;20.458;2022-12-18T02:48:54;55.00;36.75;21.00
67714;PMS7003;54505;44.022;20.458;2022-12-18T02:51:31;45.50;35.25;20.25
67714;PMS7003;54505;44.022;20.458;2022-12-18T02:54:00;56.75;37.75;20.75
67714;PMS7003;54505;44.022;20.458;2022-12-18T02:56:33;34.25;30.75;18.25
67714;PMS7003;54505;44.022;20.458;2022-12-18T02:59:06;47.00;33.00;24.25
67714;PMS7003;54505;44.022;20.458;2022-12-18T03:01:38;56.50;40.00;22.25
67714;PMS7003;54505;44.022;20.458;2022-12-18T03:04:18;52.00;37.75;22.75
67714;PMS7003;54505;44.022;20.458;2022-12-18T03:06:48;42.00;35.50;20.75
67714;PMS7003;54505;44.022;20.458;2022-12-18T03:09:17;44.50;35.50;24.25
67714;PMS7003;54505;44.022;20.458;2022-12-18T03:11:46;34.50;23.25;11.50
67714;PMS7003;54505;44.022;20.458;2022-12-18T03:14:32;49.00;38.00;23.00
67714;PMS7003;54505;44.022;20.458;2022-12-18T03:17:01;43.00;35.00;24.00
67714;PMS7003;54505;44.022;20.458;2022-12-18T03:19:28;40.25;40.00;26.25
67714;PMS7003;54505;44.022;20.458;2022-12-18T03:21:55;53.25;36.50;23.00
67714;PMS7003;54505;44.022;20.458;2022-12-18T03:24:21;46.25;37.50;23.25
67714;PMS7003;54505;44.022;20.458;2022-12-18T03:26:49;48.25;34.00;23.25
67714;PMS7003;54505;44.022;20.458;2022-12-18T03:29:28;41.50;32.75;24.00
67714;PMS7003;54505;44.022;20.458;2022-12-18T03:32:00;51.75;34.00;23.00
67714;PMS7003;54505;44.022;20.458;2022-12-18T03:34:29;50.75;45.25;27.00
67714;PMS7003;54505;44.022;20.458;2022-12-18T03:36:56;47.50;38.75;25.50
67714;PMS7003;54505;44.022;20.458;2022-12-18T03:39:21;47.75;37.75;24.00
67714;PMS7003;54505;44.022;20.458;2022-12-18T03:41:51;60.75;44.25;28.00
67714;PMS7003;54505;44.022;20.458;2022-12-18T03:49:12;51.75;40.75;25.00
67714;PMS7003;54505;44.022;20.458;2022-12-18T03:51:46;56.00;40.00;25.25
67714;PMS7003;54505;44.022;20.458;2022-12-18T03:54:15;52.00;34.25;22.75
67714;PMS7003;54505;44.022;20.458;2022-12-18T03:56:44;47.75;40.25;24.00
67714;PMS7003;54505;44.022;20.458;2022-12-18T03:59:12;35.25;32.50;21.00
67714;PMS7003;54505;44.022;20.458;2022-12-18T04:01:41;43.00;36.50;26.25
67714;PMS7003;54505;44.022;20.458;2022-12-18T04:04:08;44.00;30.25;14.00
67714;PMS7003;54505;44.022;20.458;2022-12-18T04:06:35;50.00;35.25;22.50
67714;PMS7003;54505;44.022;20.458;2022-12-18T04:09:02;45.75;36.25;24.50
67714;PMS7003;54505;44.022;20.458;2022-12-18T04:11:29;44.00;38.00;22.75
67714;PMS7003;54505;44.022;20.458;2022-12-18T04:13:55;43.75;35.75;24.50
67714;PMS7003;54505;44.022;20.458;2022-12-18T04:16:21;47.25;41.25;24.25
67714;PMS7003;54505;44.022;20.458;2022-12-18T04:18:46;49.75;42.25;24.00
67714;PMS7003;54505;44.022;20.458;2022-12-18T04:21:12;55.75;41.50;27.00
67714;PMS7003;54505;44.022;20.458;2022-12-18T04:23:38;54.75;39.75;23.00
67714;PMS7003;54505;44.022;20.458;2022-12-18T04:26:03;39.50;32.75;27.25
67714;PMS7003;54505;44.022;20.458;2022-12-18T04:28:29;42.25;35.50;21.50
67714;PMS7003;54505;44.022;20.458;2022-12-18T04:30:54;54.50;41.00;23.50
67714;PMS7003;54505;44.022;20.458;2022-12-18T04:33:20;43.00;35.00;21.75
67714;PMS7003;54505;44.022;20.458;2022-12-18T04:35:46;57.50;43.75;28.75
67714;PMS7003;54505;44.022;20.458;2022-12-18T04:38:12;47.75;40.75;26.75
67714;PMS7003;54505;44.022;20.458;2022-12-18T04:40:38;53.00;43.50;25.00
67714;PMS7003;54505;44.022;20.458;2022-12-18T04:43:04;42.75;38.25;23.50
67714;PMS7003;54505;44.022;20.458;2022-12-18T04:45:30;40.25;28.00;13.25
67714;PMS7003;54505;44.022;20.458;2022-12-18T04:47:59;53.00;38.50;25.50
67714;PMS7003;54505;44.022;20.458;2022-12-18T04:50:25;44.00;36.00;23.25
67714;PMS7003;54505;44.022;20.458;2022-12-18T04:52:51;48.00;35.25;23.00
67714;PMS7003;54505;44.022;20.458;2022-12-18T04:55:16;50.00;40.00;24.50
67714;PMS7003;54505;44.022;20.458;2022-12-18T04:57:42;35.25;29.75;18.75
67714;PMS7003;54505;44.022;20.458;2022-12-18T05:00:08;46.50;34.75;22.25
67714;PMS7003;54505;44.022;20.458;2022-12-18T05:02:34;42.25;38.25;22.75
67714;PMS7003;54505;44.022;20.458;2022-12-18T05:05:00;39.25;32.00;23.50
67714;PMS7003;54505;44.022;20.458;2022-12-18T05:07:25;40.00;34.25;23.00
67714;PMS7003;54505;44.022;20.458;2022-12-18T05:09:51;46.50;37.00;21.75
67714;PMS7003;54505;44.022;20.458;2022-12-18T05:12:17;36.00;33.25;18.50
67714;PMS7003;54505;44.022;20.458;2022-12-18T05:14:42;34.25;26.50;14.75
67714;PMS7003;54505;44.022;20.458;2022-12-18T05:17:08;44.00;33.50;21.75
67714;PMS7003;54505;44.022;20.458;2022-12-18T05:19:33;45.50;35.50;21.00
67714;PMS7003;54505;44.022;20.458;2022-12-18T05:21:59;39.75;33.00;20.00
67714;PMS7003;54505;44.022;20.458;2022-12-18T05:24:25;47.75;38.00;22.75
67714;PMS7003;54505;44.022;20.458;2022-12-18T05:26:53;39.00;35.25;23.50
67714;PMS7003;54505;44.022;20.458;2022-12-18T05:29:19;46.25;39.00;23.00
67714;PMS7003;54505;44.022;20.458;2022-12-18T05:31:45;56.50;47.00;29.25
67714;PMS7003;54505;44.022;20.458;2022-12-18T05:34:10;52.25;46.00;29.50
67714;PMS7003;54505;44.022;20.458;2022-12-18T05:36:36;56.75;42.50;28.25
67714;PMS7003;54505;44.022;20.458;2022-12-18T05:39:02;55.00;42.75;25.50
67714;PMS7003;54505;44.022;20.458;2022-12-18T05:41:28;57.75;43.75;27.25
67714;PMS7003;54505;44.022;20.458;2022-12-18T05:43:54;70.25;47.75;31.75
67714;PMS7003;54505;44.022;20.458;2022-12-18T05:46:19;53.25;41.25;26.75
67714;PMS7003;54505;44.022;20.458;2022-12-18T05:48:45;47.50;31.50;20.00
67714;PMS7003;54505;44.022;20.458;2022-12-18T05:51:15;49.00;37.25;22.75
67714;PMS7003;54505;44.022;20.458;2022-12-18T05:53:41;54.00;43.50;24.75
67714;PMS7003;54505;44.022;20.458;2022-12-18T05:56:08;67.00;44.75;28.25
67714;PMS7003;54505;44.022;20.458;2022-12-18T05:58:34;73.75;52.50;32.25
67714;PMS7003;54505;44.022;20.458;2022-12-18T06:01:07;123.50;101.50;61.00
67714;PMS7003;54505;44.022;20.458;2022-12-18T06:03:33;107.75;84.50;53.25
67714;PMS7003;54505;44.022;20.458;2022-12-18T06:05:59;84.25;59.75;38.25
67714;PMS7003;54505;44.022;20.458;2022-12-18T06:08:24;85.50;60.50;36.50
67714;PMS7003;54505;44.022;20.458;2022-12-18T06:10:50;73.25;56.00;33.25
67714;PMS7003;54505;44.022;20.458;2022-12-18T06:13:18;49.75;43.25;27.25
67714;PMS7003;54505;44.022;20.458;2022-12-18T06:15:44;57.50;43.00;27.50
67714;PMS7003;54505;44.022;20.458;2022-12-18T06:18:09;57.75;45.25;28.75
67714;PMS7003;54505;44.022;20.458;2022-12-18T06:20:35;56.00;44.75;27.00
67714;PMS7003;54505;44.022;20.458;2022-12-18T06:23:02;64.25;47.25;29.75
67714;PMS7003;54505;44.022;20.458;2022-12-18T06:25:28;54.50;42.75;28.25
67714;PMS7003;54505;44.022;20.458;2022-12-18T06:27:53;67.25;48.00;31.25
67714;PMS7003;54505;44.022;20.458;2022-12-18T06:30:20;67.75;50.25;31.75
67714;PMS7003;54505;44.022;20.458;2022-12-18T06:32:45;66.25;50.50;32.75
67714;PMS7003;54505;44.022;20.458;2022-12-18T06:35:11;69.50;48.50;30.25
67714;PMS7003;54505;44.022;20.458;2022-12-18T06:37:36;45.75;35.50;22.25
67714;PMS7003;54505;44.022;20.458;2022-12-18T06:40:02;54.00;41.75;25.25
67714;PMS7003;54505;44.022;20.458;2022-12-18T06:42:28;58.25;44.25;25.25
67714;PMS7003;54505;44.022;20.458;2022-12-18T06:44:54;48.25;37.50;20.75
67714;PMS7003;54505;44.022;20.458;2022-12-18T06:47:19;67.75;50.25;31.50
67714;PMS7003;54505;44.022;20.458;2022-12-18T06:49:45;52.75;43.00;27.50
67714;PMS7003;54505;44.022;20.458;2022-12-18T06:52:11;65.50;47.25;29.25
67714;PMS7003;54505;44.022;20.458;2022-12-18T06:54:37;49.00;39.75;22.00
67714;PMS7003;54505;44.022;20.458;2022-12-18T06:57:02;50.75;39.25;25.25
67714;PMS7003;54505;44.022;20.458;2022-12-18T06:59:28;54.00;41.25;24.25
67714;PMS7003;54505;44.022;20.458;2022-12-18T07:01:53;45.25;39.50;27.75
67714;PMS7003;54505;44.022;20.458;2022-12-18T07:04:19;60.75;42.75;25.75
67714;PMS7003;54505;44.022;20.458;2022-12-18T07:06:45;63.00;46.25;29.00
67714;PMS7003;54505;44.022;20.458;2022-12-18T07:09:10;49.25;45.25;28.75
67714;PMS7003;54505;44.022;20.458;2022-12-18T07:11:36;58.00;47.00;29.25
67714;PMS7003;54505;44.022;20.458;2022-12-18T07:14:02;48.25;40.25;25.50
67714;PMS7003;54505;44.022;20.458;2022-12-18T07:16:27;66.75;46.75;26.25
67714;PMS7003;54505;44.022;20.458;2022-12-18T07:18:56;65.00;47.50;28.50
67714;PMS7003;54505;44.022;20.458;2022-12-18T07:21:22;56.25;44.25;28.00
67714;PMS7003;54505;44.022;20.458;2022-12-18T07:23:49;63.75;50.50;31.75
67714;PMS7003;54505;44.022;20.458;2022-12-18T07:26:15;59.00;47.75;28.75
67714;PMS7003;54505;44.022;20.458;2022-12-18T07:28:41;41.50;36.25;28.25
67714;PMS7003;54505;44.022;20.458;2022-12-18T07:31:08;51.50;42.00;26.25
67714;PMS7003;54505;44.022;20.458;2022-12-18T07:33:34;60.50;47.00;29.75
67714;PMS7003;54505;44.022;20.458;2022-12-18T07:36:00;69.50;53.50;34.00
67714;PMS7003;54505;44.022;20.458;2022-12-18T07:38:26;49.00;40.25;26.25
67714;PMS7003;54505;44.022;20.458;2022-12-18T07:40:52;55.75;44.00;28.75
67714;PMS7003;54505;44.022;20.458;2022-12-18T07:43:18;55.00;43.00;27.00
67714;PMS7003;54505;44.022;20.458;2022-12-18T07:45:44;69.25;54.00;33.00
67714;PMS7003;54505;44.022;20.458;2022-12-18T07:48:09;85.00;65.00;41.75
67714;PMS7003;54505;44.022;20.458;2022-12-18T07:50:35;77.00;58.00;35.25
67714;PMS7003;54505;44.022;20.458;2022-12-18T07:53:01;66.75;52.25;33.25
67714;PMS7003;54505;44.022;20.458;2022-12-18T07:55:29;50.75;34.25;22.75
67714;PMS7003;54505;44.022;20.458;2022-12-18T07:58:02;47.50;42.25;26.00
67714;PMS7003;54505;44.022;20.458;2022-12-18T08:00:28;48.00;42.50;29.00
67714;PMS7003;54505;44.022;20.458;2022-12-18T08:02:53;63.50;47.75;32.50
67714;PMS7003;54505;44.022;20.458;2022-12-18T08:05:19;53.75;46.00;29.50
67714;PMS7003;54505;44.022;20.458;2022-12-18T08:07:46;66.25;48.25;32.25
67714;PMS7003;54505;44.022;20.458;2022-12-18T08:10:12;71.00;51.50;31.25
67714;PMS7003;54505;44.022;20.458;2022-12-18T08:12:38;66.00;47.50;30.25
67714;PMS7003;54505;44.022;20.458;2022-12-18T08:15:03;73.75;56.50;37.25
67714;PMS7003;54505;44.022;20.458;2022-12-18T08:17:29;52.50;46.50;32.75
67714;PMS7003;54505;44.022;20.458;2022-12-18T08:19:55;60.50;46.75;30.50
67714;PMS7003;54505;44.022;20.458;2022-12-18T08:22:21;61.25;46.75;31.50
67714;PMS7003;54505;44.022;20.458;2022-12-18T08:24:46;56.75;41.75;28.25
67714;PMS7003;54505;44.022;20.458;2022-12-18T08:27:12;54.75;45.75;29.25
67714;PMS7003;54505;44.022;20.458;2022-12-18T08:29:38;57.25;45.00;28.00
67714;PMS7003;54505;44.022;20.458;2022-12-18T08:32:07;66.50;47.00;30.50
67714;PMS7003;54505;44.022;20.458;2022-12-18T08:34:33;66.25;53.50;31.00
67714;PMS7003;54505;44.022;20.458;2022-12-18T08:36:58;76.25;55.75;36.25
67714;PMS7003;54505;44.022;20.458;2022-12-18T08:39:24;71.00;53.50;34.75
67714;PMS7003;54505;44.022;20.458;2022-12-18T08:41:50;63.25;51.25;31.75
67714;PMS7003;54505;44.022;20.458;2022-12-18T08:44:34;57.75;44.25;27.75
67714;PMS7003;54505;44.022;20.458;2022-12-18T08:47:03;58.25;46.75;29.00
67714;PMS7003;54505;44.022;20.458;2022-12-18T08:49:29;65.75;42.75;26.50
67714;PMS7003;54505;44.022;20.458;2022-12-18T08:51:55;61.25;42.50;29.25
67714;PMS7003;54505;44.022;20.458;2022-12-18T08:54:22;56.25;44.50;27.25
67714;PMS7003;54505;44.022;20.458;2022-12-18T08:56:48;63.75;49.00;31.00
67714;PMS7003;54505;44.022;20.458;2022-12-18T08:59:15;68.50;51.25;32.25
67714;PMS7003;54505;44.022;20.458;2022-12-18T09:01:41;65.00;45.00;30.50
67714;PMS7003;54505;44.022;20.458;2022-12-18T09:04:07;51.50;42.25;24.25
67714;PMS7003;54505;44.022;20.458;2022-12-18T09:06:33;68.75;46.75;28.75
67714;PMS7003;54505;44.022;20.458;2022-12-18T09:08:59;54.50;42.75;28.00
67714;PMS7003;54505;44.022;20.458;2022-12-18T09:11:25;54.75;44.25;30.00
67714;PMS7003;54505;44.022;20.458;2022-12-18T09:13:51;73.00;56.25;34.75
67714;PMS7003;54505;44.022;20.458;2022-12-18T09:16:17;62.50;47.50;29.00
67714;PMS7003;54505;44.022;20.458;2022-12-18T09:18:43;62.75;46.75;30.75
67714;PMS7003;54505;44.022;20.458;2022-12-18T09:21:16;74.75;56.25;36.75
67714;PMS7003;54505;44.022;20.458;2022-12-18T09:23:42;67.50;48.75;31.50
67714;PMS7003;54505;44.022;20.458;2022-12-18T09:26:08;63.75;44.00;28.25
67714;PMS7003;54505;44.022;20.458;2022-12-18T09:28:34;55.25;44.50;30.25
67714;PMS7003;54505;44.022;20.458;2022-12-18T09:31:03;59.75;46.75;28.00
67714;PMS7003;54505;44.022;20.458;2022-12-18T09:33:29;70.00;55.25;33.75
67714;PMS7003;54505;44.022;20.458;2022-12-18T09:35:55;68.00;50.75;30.75
67714;PMS7003;54505;44.022;20.458;2022-12-18T09:38:20;72.50;56.25;39.00
67714;PMS7003;54505;44.022;20.458;2022-12-18T09:40:49;71.75;53.00;30.00
67714;PMS7003;54505;44.022;20.458;2022-12-18T09:43:26;69.75;51.50;33.50
67714;PMS7003;54505;44.022;20.458;2022-12-18T09:45:55;58.00;48.25;33.25
67714;PMS7003;54505;44.022;20.458;2022-12-18T09:48:25;66.50;51.00;33.50
67714;PMS7003;54505;44.022;20.458;2022-12-18T09:50:55;79.00;56.00;35.50
67714;PMS7003;54505;44.022;20.458;2022-12-18T09:53:24;68.75;52.75;33.50
67714;PMS7003;54505;44.022;20.458;2022-12-18T09:55:52;65.75;49.75;33.00
67714;PMS7003;54505;44.022;20.458;2022-12-18T10:00:44;68.25;50.25;33.00
67714;PMS7003;54505;44.022;20.458;2022-12-18T10:03:11;76.75;54.75;37.00
67714;PMS7003;54505;44.022;20.458;2022-12-18T10:08:17;79.25;55.50;37.75
67714;PMS7003;54505;44.022;20.458;2022-12-18T10:15:50;67.50;54.50;35.00
67714;PMS7003;54505;44.022;20.458;2022-12-18T10:18:21;70.25;53.00;33.25
67714;PMS7003;54505;44.022;20.458;2022-12-18T10:21:34;49.00;41.00;23.75
67714;PMS7003;54505;44.022;20.458;2022-12-18T10:23:43;76.50;54.50;33.75
67714;PMS7003;54505;44.022;20.458;2022-12-18T10:26:11;73.25;54.50;33.00
67714;PMS7003;54505;44.022;20.458;2022-12-18T10:28:39;70.00;51.00;31.75
67714;PMS7003;54505;44.022;20.458;2022-12-18T10:31:16;47.25;39.75;21.75
67714;PMS7003;54505;44.022;20.458;2022-12-18T10:33:42;46.00;31.00;24.75
67714;PMS7003;54505;44.022;20.458;2022-12-18T10:36:11;64.75;46.00;27.25
67714;PMS7003;54505;44.022;20.458;2022-12-18T10:38:37;55.50;44.50;28.25
67714;PMS7003;54505;44.022;20.458;2022-12-18T10:41:04;70.50;51.25;31.00
67714;PMS7003;54505;44.022;20.458;2022-12-18T10:46:00;65.75;48.50;29.25
67714;PMS7003;54505;44.022;20.458;2022-12-18T10:48:26;57.25;42.75;26.25
67714;PMS7003;54505;44.022;20.458;2022-12-18T10:50:53;67.25;47.75;29.00
67714;PMS7003;54505;44.022;20.458;2022-12-18T10:53:21;66.00;49.00;30.75
67714;PMS7003;54505;44.022;20.458;2022-12-18T10:55:48;71.25;55.25;32.50
67714;PMS7003;54505;44.022;20.458;2022-12-18T11:01:08;69.25;53.00;33.25
67714;PMS7003;54505;44.022;20.458;2022-12-18T11:03:35;63.00;49.00;30.50
67714;PMS7003;54505;44.022;20.458;2022-12-18T11:06:06;68.00;48.00;29.50
67714;PMS7003;54505;44.022;20.458;2022-12-18T11:08:31;66.75;53.00;33.00
67714;PMS7003;54505;44.022;20.458;2022-12-18T11:10:57;72.25;53.00;29.75
67714;PMS7003;54505;44.022;20.458;2022-12-18T11:13:24;46.75;34.00;14.25
67714;PMS7003;54505;44.022;20.458;2022-12-18T11:15:51;59.75;48.25;28.75
67714;PMS7003;54505;44.022;20.458;2022-12-18T11:18:19;66.75;50.00;31.25
67714;PMS7003;54505;44.022;20.458;2022-12-18T11:20:52;68.25;52.75;32.50
67714;PMS7003;54505;44.022;20.458;2022-12-18T11:23:21;63.50;51.75;31.00
67714;PMS7003;54505;44.022;20.458;2022-12-18T11:25:52;67.75;48.50;30.25
67714;PMS7003;54505;44.022;20.458;2022-12-18T11:28:27;68.75;52.00;30.75
67714;PMS7003;54505;44.022;20.458;2022-12-18T11:33:38;68.75;52.25;31.25
67714;PMS7003;54505;44.022;20.458;2022-12-18T11:36:07;74.25;53.75;31.75
67714;PMS7003;54505;44.022;20.458;2022-12-18T11:38:34;69.75;49.25;30.50
67714;PMS7003;54505;44.022;20.458;2022-12-18T11:43:48;60.25;45.50;27.75
67714;PMS7003;54505;44.022;20.458;2022-12-18T11:46:19;55.00;45.50;27.75
67714;PMS7003;54505;44.022;20.458;2022-12-18T11:49:07;51.25;43.50;26.50
67714;PMS7003;54505;44.022;20.458;2022-12-18T11:51:38;64.50;48.00;27.75
67714;PMS7003;54505;44.022;20.458;2022-12-18T11:54:14;52.50;44.75;26.75
67714;PMS7003;54505;44.022;20.458;2022-12-18T11:56:44;52.25;44.25;28.50
67714;PMS7003;54505;44.022;20.458;2022-12-18T12:15:27;67.00;50.25;31.25
67714;PMS7003;54505;44.022;20.458;2022-12-18T12:20:46;53.50;43.25;27.25
67714;PMS7003;54505;44.022;20.458;2022-12-18T12:23:18;56.75;45.25;28.00
67714;PMS7003;54505;44.022;20.458;2022-12-18T12:31:00;58.00;44.50;24.50
67714;PMS7003;54505;44.022;20.458;2022-12-18T12:34:15;61.00;48.00;30.50
67714;PMS7003;54505;44.022;20.458;2022-12-18T12:38:44;62.00;47.75;29.75
67714;PMS7003;54505;44.022;20.458;2022-12-18T12:41:14;49.50;42.00;27.25
67714;PMS7003;54505;44.022;20.458;2022-12-18T12:44:02;51.75;41.25;26.00
67714;PMS7003;54505;44.022;20.458;2022-12-18T12:46:30;48.75;41.50;25.50
67714;PMS7003;54505;44.022;20.458;2022-12-18T12:48:59;62.50;48.00;31.50
67714;PMS7003;54505;44.022;20.458;2022-12-18T12:51:36;59.00;44.00;28.00
67714;PMS7003;54505;44.022;20.458;2022-12-18T12:54:04;68.25;54.00;33.00
67714;PMS7003;54505;44.022;20.458;2022-12-18T12:56:39;70.25;52.50;33.75
67714;PMS7003;54505;44.022;20.458;2022-12-18T12:59:13;74.00;56.50;36.00
67714;PMS7003;54505;44.022;20.458;2022-12-18T13:04:30;56.50;47.75;28.75
67714;PMS7003;54505;44.022;20.458;2022-12-18T13:07:05;69.25;54.75;34.00
67714;PMS7003;54505;44.022;20.458;2022-12-18T13:09:32;86.75;63.75;40.75
67714;PMS7003;54505;44.022;20.458;2022-12-18T13:12:02;61.50;46.00;28.00
67714;PMS7003;54505;44.022;20.458;2022-12-18T13:14:47;65.50;47.50;27.50
67714;PMS7003;54505;44.022;20.458;2022-12-18T13:19:47;70.75;50.25;33.50
67714;PMS7003;54505;44.022;20.458;2022-12-18T13:22:23;74.25;52.50;31.25
67714;PMS7003;54505;44.022;20.458;2022-12-18T13:24:50;70.25;54.50;34.00
67714;PMS7003;54505;44.022;20.458;2022-12-18T13:35:38;62.00;48.00;30.75
67714;PMS7003;54505;44.022;20.458;2022-12-18T13:43:25;59.50;46.50;28.50
67714;PMS7003;54505;44.022;20.458;2022-12-18T13:48:37;64.50;51.00;33.50
67714;PMS7003;54505;44.022;20.458;2022-12-18T13:51:04;64.50;45.50;28.25
67714;PMS7003;54505;44.022;20.458;2022-12-18T13:53:36;68.75;46.25;29.75
67714;PMS7003;54505;44.022;20.458;2022-12-18T13:56:04;58.50;46.00;27.00
67714;PMS7003;54505;44.022;20.458;2022-12-18T13:58:30;57.25;46.00;26.75
67714;PMS7003;54505;44.022;20.458;2022-12-18T14:00:56;68.25;53.75;35.00
67714;PMS7003;54505;44.022;20.458;2022-12-18T14:03:25;68.50;48.00;30.75
67714;PMS7003;54505;44.022;20.458;2022-12-18T14:05:52;57.50;50.00;32.50
67714;PMS7003;54505;44.022;20.458;2022-12-18T14:08:19;62.50;47.75;29.75
67714;PMS7003;54505;44.022;20.458;2022-12-18T14:10:46;69.75;49.25;32.25
67714;PMS7003;54505;44.022;20.458;2022-12-18T14:13:31;63.00;50.00;31.25
67714;PMS7003;54505;44.022;20.458;2022-12-18T14:16:00;56.25;43.25;29.00
67714;PMS7003;54505;44.022;20.458;2022-12-18T14:20:55;58.50;45.25;26.50
67714;PMS7003;54505;44.022;20.458;2022-12-18T14:23:32;69.00;57.75;34.75
67714;PMS7003;54505;44.022;20.458;2022-12-18T14:25:59;70.00;54.25;31.75
67714;PMS7003;54505;44.022;20.458;2022-12-18T14:28:24;56.75;46.00;26.25
67714;PMS7003;54505;44.022;20.458;2022-12-18T14:30:51;73.00;56.50;35.75
67714;PMS7003;54505;44.022;20.458;2022-12-18T14:33:18;67.00;47.50;32.00
67714;PMS7003;54505;44.022;20.458;2022-12-18T14:38:23;66.50;45.25;29.25
67714;PMS7003;54505;44.022;20.458;2022-12-18T14:40:53;72.50;57.50;33.50
67714;PMS7003;54505;44.022;20.458;2022-12-18T14:43:20;54.00;48.00;32.75
67714;PMS7003;54505;44.022;20.458;2022-12-18T14:45:46;78.75;62.25;40.00
67714;PMS7003;54505;44.022;20.458;2022-12-18T14:50:54;80.25;57.75;36.25
67714;PMS7003;54505;44.022;20.458;2022-12-18T14:53:39;70.75;54.25;35.00
67714;PMS7003;54505;44.022;20.458;2022-12-18T15:01:33;89.25;67.50;40.50
67714;PMS7003;54505;44.022;20.458;2022-12-18T15:04:00;89.25;62.50;41.75
67714;PMS7003;54505;44.022;20.458;2022-12-18T15:06:28;82.00;65.50;45.00
67714;PMS7003;54505;44.022;20.458;2022-12-18T15:08:54;63.25;52.00;33.75
67714;PMS7003;54505;44.022;20.458;2022-12-18T15:11:33;81.00;61.00;38.00
67714;PMS7003;54505;44.022;20.458;2022-12-18T15:14:00;81.25;62.00;40.50
67714;PMS7003;54505;44.022;20.458;2022-12-18T15:16:26;88.50;66.25;41.00
67714;PMS7003;54505;44.022;20.458;2022-12-18T15:18:52;88.50;64.00;40.50
67714;PMS7003;54505;44.022;20.458;2022-12-18T15:21:19;81.50;60.25;38.75